Kenner, LA (70063)

2:36 PM CDT on August 27, 2014 (GMT -0500)
New Orleans International | Change Station
CLOSE
Current Station
Airport
Location: New Orleans,
Elevation: 3 ft
Nearby Weather Stations

Elev 3 ft 29.99 °N, 90.25 °W | Updated 43 minutes ago

Mostly Cloudy
Mostly Cloudy
90 °F
Feels Like 98 °F
N
12
Wind Variable Wind from ESE

Today
High -- | Low -- °F
--% Chance of Precip.
Yesterday
High -- | Low -- °F
Precip. -- in
6:35 AM 7:29 PM
Waxing Crescent, 4% visible
Pressure 30.00 in
Visibility 10.0 miles
Clouds Scattered Clouds 2900 ft
Scattered Clouds 3600 ft
Mostly Cloudy 12000 ft
Mostly Cloudy 25000 ft
Heat Index 98 °F
Dew Point 73 °F
Humidity 59%
Rainfall 0.00 in
Snow Depth Not available.
UV 7 out of 12
Pollen 7.60 out of 12
Ozone Good
PM2.5 Good
Flu Activity Not available.
METAR KMSY 271853Z 11010KT 10SM SCT029 SCT036 BKN120 BKN250 32/23 A3000

More Conditions Fewer Conditions

Pressure 30.00 in
Visibility 10.0 miles
Clouds Scattered Clouds 2900 ft
Scattered Clouds 3600 ft
Mostly Cloudy 12000 ft
Mostly Cloudy 25000 ft
Heat Index 98 °F
Dew Point 73 °F
Humidity 59%
Rainfall 0.00 in
Snow Depth Not available.
UV 7 out of 12
Pollen 7.60 out of 12
Ozone Good
PM2.5 Good
Flu Activity Not available.
METAR KMSY 271853Z 11010KT 10SM SCT029 SCT036 BKN120 BKN250 32/23 A3000

More Conditions Fewer Conditions

10-Day Weather Forecast

Almanac

Astronomy

Aug. 27, 2014 Rise Set
Actual Time 6:35 AM CDT 7:29 PM CDT
Civil Twilight 6:10 AM CDT 7:53 PM CDT
Nautical Twilight 5:41 AM CDT 8:22 PM CDT
Astronomical Twilight 5:11 AM CDT 8:52 PM CDT
Moon 8:19 AM CDT 8:34 PM CDT
Length of Visible Light 13h 43m
Length of Day
12h 53m
Tomorrow will be 1m 43s shorter.
Waxing Crescent, 4% of the Moon is Illuminated
Today
Waxing Crescent
Sep 2
First Quarter
Sep 8
Full
Sep 15
Last Quarter
Sep 24
New

Today's Extremes

State Highs State Lows

Community

WunderPhotos

Upload Photos

1,747,769 photos uploaded!

Nearby

Air Quality

  Air Quality AQ Index Pollutant
Yesterday Good
PM2.5
Yesterday Good
OZONE
Current Good
PM2.5
Current Good
OZONE
Wednesday Good
PM2.5
Wednesday Good
OZONE
Thursday Good
PM2.5
Thursday Good
OZONE
Friday Good
PM2.5
Friday Good
OZONE

Snow Depth

Station Depth Elevation
No new snow has been reported.

Earthquake Activity

City Distance Mag. Time & Date
No recent earthquake activity has been reported nearby.
Minimum magnitude displayed is 2.5.

Coastal Water Temperatures

Place Temperature
New Canal, LA 84.9 °F
Shell Beach, LA 82.0 °F
Bayou Gauche, LA 84.9 °F

Nearby Weather Stations